sensor_id;sensor_type;location;lat;lon;timestamp;P1;durP1;ratioP1;P2;durP2;ratioP2
34035;SDS011;63481;52.588;22.472;2023-04-25T00:00:24;10.50;;;4.80;;
34035;SDS011;63481;52.588;22.472;2023-04-25T00:01:16;12.90;;;5.00;;
34035;SDS011;63481;52.588;22.472;2023-04-25T00:01:49;11.20;;;6.10;;
34035;SDS011;63481;52.588;22.472;2023-04-25T00:02:22;12.50;;;4.60;;
34035;SDS011;63481;52.588;22.472;2023-04-25T00:02:54;10.30;;;5.20;;
34035;SDS011;63481;52.588;22.472;2023-04-25T00:03:28;9.00;;;4.60;;
34035;SDS011;63481;52.588;22.472;2023-04-25T00:04:01;12.90;;;5.40;;
34035;SDS011;63481;52.588;22.472;2023-04-25T00:04:34;8.60;;;4.40;;
34035;SDS011;63481;52.588;22.472;2023-04-25T00:05:06;9.10;;;4.70;;
34035;SDS011;63481;52.588;22.472;2023-04-25T00:05:39;11.60;;;5.10;;
34035;SDS011;63481;52.588;22.472;2023-04-25T00:06:15;12.00;;;5.40;;
34035;SDS011;63481;52.588;22.472;2023-04-25T00:06:49;9.20;;;4.80;;
34035;SDS011;63481;52.588;22.472;2023-04-25T00:07:21;11.10;;;5.40;;
34035;SDS011;63481;52.588;22.472;2023-04-25T00:07:53;10.80;;;5.20;;
34035;SDS011;63481;52.588;22.472;2023-04-25T00:08:26;12.40;;;5.00;;
34035;SDS011;63481;52.588;22.472;2023-04-25T00:09:01;12.10;;;4.80;;
34035;SDS011;63481;52.588;22.472;2023-04-25T00:09:39;11.00;;;5.30;;
34035;SDS011;63481;52.588;22.472;2023-04-25T00:10:11;11.60;;;5.00;;
34035;SDS011;63481;52.588;22.472;2023-04-25T00:10:43;9.60;;;5.20;;
34035;SDS011;63481;52.588;22.472;2023-04-25T00:11:16;9.50;;;4.90;;
34035;SDS011;63481;52.588;22.472;2023-04-25T00:11:48;14.60;;;5.50;;
34035;SDS011;63481;52.588;22.472;2023-04-25T00:12:20;9.00;;;4.70;;
34035;SDS011;63481;52.588;22.472;2023-04-25T00:12:54;10.40;;;5.40;;
34035;SDS011;63481;52.588;22.472;2023-04-25T00:13:26;11.90;;;5.20;;
34035;SDS011;63481;52.588;22.472;2023-04-25T00:13:58;11.30;;;5.30;;
34035;SDS011;63481;52.588;22.472;2023-04-25T00:14:33;11.00;;;5.20;;
34035;SDS011;63481;52.588;22.472;2023-04-25T00:15:07;9.40;;;5.10;;
34035;SDS011;63481;52.588;22.472;2023-04-25T00:15:39;8.70;;;4.50;;
34035;SDS011;63481;52.588;22.472;2023-04-25T00:16:13;12.30;;;5.20;;
34035;SDS011;63481;52.588;22.472;2023-04-25T00:16:47;10.20;;;5.20;;
34035;SDS011;63481;52.588;22.472;2023-04-25T00:17:19;10.00;;;5.10;;
34035;SDS011;63481;52.588;22.472;2023-04-25T00:17:52;12.80;;;4.60;;
34035;SDS011;63481;52.588;22.472;2023-04-25T00:18:24;9.80;;;5.20;;
34035;SDS011;63481;52.588;22.472;2023-04-25T00:18:56;11.70;;;5.20;;
34035;SDS011;63481;52.588;22.472;2023-04-25T00:19:30;13.00;;;4.70;;
34035;SDS011;63481;52.588;22.472;2023-04-25T00:20:04;9.50;;;5.30;;
34035;SDS011;63481;52.588;22.472;2023-04-25T00:20:38;11.80;;;4.90;;
34035;SDS011;63481;52.588;22.472;2023-04-25T00:21:10;10.30;;;4.70;;
34035;SDS011;63481;52.588;22.472;2023-04-25T00:21:42;14.50;;;5.30;;
34035;SDS011;63481;52.588;22.472;2023-04-25T00:22:17;10.70;;;5.10;;
34035;SDS011;63481;52.588;22.472;2023-04-25T00:22:49;12.20;;;5.50;;
34035;SDS011;63481;52.588;22.472;2023-04-25T00:23:21;11.50;;;5.20;;
34035;SDS011;63481;52.588;22.472;2023-04-25T00:23:53;10.10;;;5.00;;
34035;SDS011;63481;52.588;22.472;2023-04-25T00:24:26;8.70;;;4.90;;
34035;SDS011;63481;52.588;22.472;2023-04-25T00:24:58;12.80;;;5.50;;
34035;SDS011;63481;52.588;22.472;2023-04-25T00:25:31;14.90;;;5.30;;
34035;SDS011;63481;52.588;22.472;2023-04-25T00:26:03;14.00;;;5.60;;
34035;SDS011;63481;52.588;22.472;2023-04-25T00:26:37;17.80;;;5.40;;
34035;SDS011;63481;52.588;22.472;2023-04-25T00:27:12;9.80;;;5.60;;
34035;SDS011;63481;52.588;22.472;2023-04-25T00:27:44;12.50;;;5.70;;
34035;SDS011;63481;52.588;22.472;2023-04-25T00:28:16;9.80;;;5.10;;
34035;SDS011;63481;52.588;22.472;2023-04-25T00:28:48;16.50;;;5.30;;
34035;SDS011;63481;52.588;22.472;2023-04-25T00:29:20;10.80;;;5.40;;
34035;SDS011;63481;52.588;22.472;2023-04-25T00:29:52;10.40;;;5.30;;
34035;SDS011;63481;52.588;22.472;2023-04-25T00:30:25;12.10;;;4.80;;
34035;SDS011;63481;52.588;22.472;2023-04-25T00:30:57;11.00;;;5.50;;
34035;SDS011;63481;52.588;22.472;2023-04-25T00:31:30;12.10;;;5.30;;
34035;SDS011;63481;52.588;22.472;2023-04-25T00:32:02;11.50;;;5.60;;
34035;SDS011;63481;52.588;22.472;2023-04-25T00:32:34;8.80;;;5.10;;
34035;SDS011;63481;52.588;22.472;2023-04-25T00:33:09;11.00;;;4.90;;
34035;SDS011;63481;52.588;22.472;2023-04-25T00:33:42;12.40;;;5.80;;
34035;SDS011;63481;52.588;22.472;2023-04-25T00:34:14;11.50;;;5.60;;
34035;SDS011;63481;52.588;22.472;2023-04-25T00:34:46;10.20;;;5.10;;
34035;SDS011;63481;52.588;22.472;2023-04-25T00:35:18;12.10;;;5.30;;
34035;SDS011;63481;52.588;22.472;2023-04-25T00:35:51;13.10;;;5.40;;
34035;SDS011;63481;52.588;22.472;2023-04-25T00:36:23;12.10;;;5.50;;
34035;SDS011;63481;52.588;22.472;2023-04-25T00:36:56;10.90;;;5.40;;
34035;SDS011;63481;52.588;22.472;2023-04-25T00:37:28;11.40;;;5.70;;
34035;SDS011;63481;52.588;22.472;2023-04-25T00:38:01;14.50;;;5.40;;
34035;SDS011;63481;52.588;22.472;2023-04-25T00:38:33;14.40;;;5.50;;
34035;SDS011;63481;52.588;22.472;2023-04-25T00:39:06;11.90;;;5.50;;
34035;SDS011;63481;52.588;22.472;2023-04-25T00:39:39;12.50;;;5.50;;
34035;SDS011;63481;52.588;22.472;2023-04-25T00:40:11;12.00;;;5.50;;
34035;SDS011;63481;52.588;22.472;2023-04-25T00:40:43;11.10;;;5.50;;
34035;SDS011;63481;52.588;22.472;2023-04-25T00:41:15;12.30;;;5.60;;
34035;SDS011;63481;52.588;22.472;2023-04-25T00:41:47;12.10;;;5.60;;
34035;SDS011;63481;52.588;22.472;2023-04-25T00:42:20;9.70;;;5.60;;
34035;SDS011;63481;52.588;22.472;2023-04-25T00:42:53;14.30;;;5.70;;
34035;SDS011;63481;52.588;22.472;2023-04-25T00:43:28;10.60;;;5.60;;
34035;SDS011;63481;52.588;22.472;2023-04-25T00:44:04;10.60;;;5.60;;
34035;SDS011;63481;52.588;22.472;2023-04-25T00:44:41;10.40;;;5.20;;
34035;SDS011;63481;52.588;22.472;2023-04-25T00:45:15;11.70;;;5.50;;
34035;SDS011;63481;52.588;22.472;2023-04-25T00:45:47;11.70;;;5.70;;
34035;SDS011;63481;52.588;22.472;2023-04-25T00:46:22;11.90;;;5.50;;
34035;SDS011;63481;52.588;22.472;2023-04-25T00:46:54;10.30;;;5.80;;
34035;SDS011;63481;52.588;22.472;2023-04-25T00:47:27;10.40;;;5.50;;
34035;SDS011;63481;52.588;22.472;2023-04-25T00:48:00;11.00;;;5.10;;
34035;SDS011;63481;52.588;22.472;2023-04-25T00:48:32;9.40;;;5.50;;
34035;SDS011;63481;52.588;22.472;2023-04-25T00:49:06;9.70;;;5.10;;
34035;SDS011;63481;52.588;22.472;2023-04-25T00:49:38;12.00;;;5.70;;
34035;SDS011;63481;52.588;22.472;2023-04-25T00:50:11;12.10;;;5.70;;
34035;SDS011;63481;52.588;22.472;2023-04-25T00:50:47;13.20;;;5.80;;
34035;SDS011;63481;52.588;22.472;2023-04-25T00:51:30;10.80;;;5.70;;
34035;SDS011;63481;52.588;22.472;2023-04-25T00:52:03;10.30;;;5.70;;
34035;SDS011;63481;52.588;22.472;2023-04-25T00:52:37;13.20;;;6.00;;
34035;SDS011;63481;52.588;22.472;2023-04-25T00:53:14;13.10;;;5.90;;
34035;SDS011;63481;52.588;22.472;2023-04-25T00:53:47;10.80;;;5.50;;
34035;SDS011;63481;52.588;22.472;2023-04-25T00:54:21;10.70;;;5.70;;
34035;SDS011;63481;52.588;22.472;2023-04-25T00:54:54;18.20;;;6.40;;
34035;SDS011;63481;52.588;22.472;2023-04-25T00:55:26;12.10;;;6.00;;
34035;SDS011;63481;52.588;22.472;2023-04-25T00:55:59;10.30;;;5.80;;
34035;SDS011;63481;52.588;22.472;2023-04-25T00:56:31;10.00;;;5.40;;
34035;SDS011;63481;52.588;22.472;2023-04-25T00:57:03;12.00;;;6.50;;
34035;SDS011;63481;52.588;22.472;2023-04-25T00:57:36;12.10;;;5.80;;
34035;SDS011;63481;52.588;22.472;2023-04-25T00:58:08;15.60;;;6.40;;
34035;SDS011;63481;52.588;22.472;2023-04-25T00:58:41;10.90;;;6.00;;
34035;SDS011;63481;52.588;22.472;2023-04-25T00:59:14;11.70;;;6.60;;
34035;SDS011;63481;52.588;22.472;2023-04-25T00:59:47;14.50;;;6.50;;
34035;SDS011;63481;52.588;22.472;2023-04-25T01:00:19;11.20;;;6.20;;
34035;SDS011;63481;52.588;22.472;2023-04-25T01:00:53;10.90;;;5.70;;
34035;SDS011;63481;52.588;22.472;2023-04-25T01:01:25;11.40;;;5.80;;
34035;SDS011;63481;52.588;22.472;2023-04-25T01:01:57;10.70;;;5.60;;
34035;SDS011;63481;52.588;22.472;2023-04-25T01:02:30;13.00;;;6.00;;
34035;SDS011;63481;52.588;22.472;2023-04-25T01:03:04;10.30;;;5.70;;
34035;SDS011;63481;52.588;22.472;2023-04-25T01:03:39;11.30;;;5.80;;
34035;SDS011;63481;52.588;22.472;2023-04-25T01:04:12;17.60;;;6.10;;
34035;SDS011;63481;52.588;22.472;2023-04-25T01:04:45;13.10;;;6.40;;
34035;SDS011;63481;52.588;22.472;2023-04-25T01:05:19;14.70;;;6.80;;
34035;SDS011;63481;52.588;22.472;2023-04-25T01:05:51;15.90;;;5.80;;
34035;SDS011;63481;52.588;22.472;2023-04-25T01:06:23;15.10;;;6.30;;
34035;SDS011;63481;52.588;22.472;2023-04-25T01:06:56;11.10;;;6.30;;
34035;SDS011;63481;52.588;22.472;2023-04-25T01:07:29;11.60;;;6.20;;
34035;SDS011;63481;52.588;22.472;2023-04-25T01:08:05;15.10;;;6.20;;
34035;SDS011;63481;52.588;22.472;2023-04-25T01:08:37;13.90;;;6.40;;
34035;SDS011;63481;52.588;22.472;2023-04-25T01:09:10;11.40;;;6.10;;
34035;SDS011;63481;52.588;22.472;2023-04-25T01:09:45;13.80;;;6.80;;
34035;SDS011;63481;52.588;22.472;2023-04-25T01:10:18;12.40;;;6.30;;
34035;SDS011;63481;52.588;22.472;2023-04-25T01:10:50;10.60;;;5.80;;
34035;SDS011;63481;52.588;22.472;2023-04-25T01:11:22;10.80;;;6.20;;
34035;SDS011;63481;52.588;22.472;2023-04-25T01:11:55;19.10;;;6.50;;
34035;SDS011;63481;52.588;22.472;2023-04-25T01:12:27;11.90;;;6.40;;
34035;SDS011;63481;52.588;22.472;2023-04-25T01:12:59;12.10;;;6.30;;
34035;SDS011;63481;52.588;22.472;2023-04-25T01:13:31;11.20;;;6.90;;
34035;SDS011;63481;52.588;22.472;2023-04-25T01:14:04;13.60;;;6.70;;
34035;SDS011;63481;52.588;22.472;2023-04-25T01:14:37;13.50;;;6.70;;
34035;SDS011;63481;52.588;22.472;2023-04-25T01:15:11;12.70;;;6.70;;
34035;SDS011;63481;52.588;22.472;2023-04-25T01:15:43;12.10;;;6.20;;
34035;SDS011;63481;52.588;22.472;2023-04-25T01:16:15;14.10;;;7.00;;
34035;SDS011;63481;52.588;22.472;2023-04-25T01:16:47;13.40;;;6.40;;
34035;SDS011;63481;52.588;22.472;2023-04-25T01:17:19;11.20;;;6.30;;
34035;SDS011;63481;52.588;22.472;2023-04-25T01:17:52;10.10;;;5.90;;
34035;SDS011;63481;52.588;22.472;2023-04-25T01:18:25;14.10;;;5.90;;
34035;SDS011;63481;52.588;22.472;2023-04-25T01:18:57;15.20;;;6.10;;
34035;SDS011;63481;52.588;22.472;2023-04-25T01:19:30;17.00;;;6.90;;
34035;SDS011;63481;52.588;22.472;2023-04-25T01:20:03;15.40;;;6.90;;
34035;SDS011;63481;52.588;22.472;2023-04-25T01:20:37;11.20;;;6.00;;
34035;SDS011;63481;52.588;22.472;2023-04-25T01:21:11;13.60;;;6.20;;
34035;SDS011;63481;52.588;22.472;2023-04-25T01:21:44;11.50;;;6.20;;
34035;SDS011;63481;52.588;22.472;2023-04-25T01:22:17;13.90;;;6.60;;
34035;SDS011;63481;52.588;22.472;2023-04-25T01:22:50;13.20;;;6.70;;
34035;SDS011;63481;52.588;22.472;2023-04-25T01:23:23;12.50;;;6.40;;
34035;SDS011;63481;52.588;22.472;2023-04-25T01:23:55;15.10;;;6.50;;
34035;SDS011;63481;52.588;22.472;2023-04-25T01:24:29;11.50;;;6.50;;
34035;SDS011;63481;52.588;22.472;2023-04-25T01:25:03;12.40;;;7.20;;
34035;SDS011;63481;52.588;22.472;2023-04-25T01:25:35;16.90;;;7.10;;
34035;SDS011;63481;52.588;22.472;2023-04-25T01:26:09;12.90;;;6.70;;
34035;SDS011;63481;52.588;22.472;2023-04-25T01:26:42;12.30;;;7.20;;
34035;SDS011;63481;52.588;22.472;2023-04-25T01:27:23;12.00;;;6.80;;
34035;SDS011;63481;52.588;22.472;2023-04-25T01:27:57;13.30;;;6.80;;
34035;SDS011;63481;52.588;22.472;2023-04-25T01:28:31;12.20;;;7.20;;
34035;SDS011;63481;52.588;22.472;2023-04-25T01:29:06;15.00;;;6.80;;
34035;SDS011;63481;52.588;22.472;2023-04-25T01:29:40;15.30;;;6.90;;
34035;SDS011;63481;52.588;22.472;2023-04-25T01:30:13;12.20;;;6.70;;
34035;SDS011;63481;52.588;22.472;2023-04-25T01:30:46;16.10;;;7.00;;
34035;SDS011;63481;52.588;22.472;2023-04-25T01:31:19;12.60;;;6.60;;
34035;SDS011;63481;52.588;22.472;2023-04-25T01:31:51;13.10;;;6.90;;
34035;SDS011;63481;52.588;22.472;2023-04-25T01:32:24;11.50;;;6.70;;
34035;SDS011;63481;52.588;22.472;2023-04-25T01:32:58;12.90;;;6.70;;
34035;SDS011;63481;52.588;22.472;2023-04-25T01:33:31;12.10;;;6.40;;
34035;SDS011;63481;52.588;22.472;2023-04-25T01:34:03;14.10;;;7.10;;
34035;SDS011;63481;52.588;22.472;2023-04-25T01:34:35;15.50;;;6.70;;
34035;SDS011;63481;52.588;22.472;2023-04-25T01:35:08;18.40;;;7.50;;
34035;SDS011;63481;52.588;22.472;2023-04-25T01:35:42;11.70;;;6.70;;
34035;SDS011;63481;52.588;22.472;2023-04-25T01:36:15;17.30;;;7.30;;
34035;SDS011;63481;52.588;22.472;2023-04-25T01:36:48;11.40;;;6.60;;
34035;SDS011;63481;52.588;22.472;2023-04-25T01:37:22;12.20;;;7.40;;
34035;SDS011;63481;52.588;22.472;2023-04-25T01:37:54;12.20;;;6.70;;
34035;SDS011;63481;52.588;22.472;2023-04-25T01:38:27;13.70;;;6.90;;
34035;SDS011;63481;52.588;22.472;2023-04-25T01:38:59;12.20;;;7.40;;
34035;SDS011;63481;52.588;22.472;2023-04-25T01:39:32;12.50;;;6.80;;
34035;SDS011;63481;52.588;22.472;2023-04-25T01:40:05;12.50;;;7.20;;
34035;SDS011;63481;52.588;22.472;2023-04-25T01:40:39;14.50;;;7.10;;
34035;SDS011;63481;52.588;22.472;2023-04-25T01:41:12;12.50;;;7.80;;
34035;SDS011;63481;52.588;22.472;2023-04-25T01:41:45;15.20;;;7.40;;
34035;SDS011;63481;52.588;22.472;2023-04-25T01:42:21;12.70;;;7.10;;
34035;SDS011;63481;52.588;22.472;2023-04-25T01:42:54;13.30;;;7.70;;
34035;SDS011;63481;52.588;22.472;2023-04-25T01:43:26;12.10;;;7.40;;
34035;SDS011;63481;52.588;22.472;2023-04-25T01:43:59;13.20;;;7.80;;
34035;SDS011;63481;52.588;22.472;2023-04-25T01:44:32;15.40;;;7.70;;
34035;SDS011;63481;52.588;22.472;2023-04-25T01:45:04;13.60;;;7.60;;
34035;SDS011;63481;52.588;22.472;2023-04-25T01:45:38;12.60;;;7.00;;
34035;SDS011;63481;52.588;22.472;2023-04-25T01:46:13;12.90;;;7.60;;
34035;SDS011;63481;52.588;22.472;2023-04-25T01:46:45;15.30;;;7.80;;
34035;SDS011;63481;52.588;22.472;2023-04-25T01:47:17;14.70;;;7.80;;
34035;SDS011;63481;52.588;22.472;2023-04-25T01:47:50;15.10;;;7.60;;
34035;SDS011;63481;52.588;22.472;2023-04-25T01:48:23;13.40;;;7.30;;
34035;SDS011;63481;52.588;22.472;2023-04-25T01:48:55;14.20;;;8.20;;
34035;SDS011;63481;52.588;22.472;2023-04-25T01:49:30;13.50;;;8.10;;
34035;SDS011;63481;52.588;22.472;2023-04-25T01:50:05;13.30;;;8.10;;
34035;SDS011;63481;52.588;22.472;2023-04-25T01:50:39;11.30;;;7.60;;
34035;SDS011;63481;52.588;22.472;2023-04-25T01:51:12;12.50;;;8.10;;
34035;SDS011;63481;52.588;22.472;2023-04-25T01:51:45;16.10;;;8.70;;
34035;SDS011;63481;52.588;22.472;2023-04-25T01:52:17;13.20;;;8.30;;
34035;SDS011;63481;52.588;22.472;2023-04-25T01:52:50;14.90;;;7.90;;
34035;SDS011;63481;52.588;22.472;2023-04-25T01:53:23;14.10;;;8.10;;
34035;SDS011;63481;52.588;22.472;2023-04-25T01:53:55;11.60;;;7.50;;
34035;SDS011;63481;52.588;22.472;2023-04-25T01:54:29;12.30;;;8.10;;
34035;SDS011;63481;52.588;22.472;2023-04-25T01:55:01;13.00;;;8.30;;
34035;SDS011;63481;52.588;22.472;2023-04-25T01:55:36;12.50;;;7.80;;
34035;SDS011;63481;52.588;22.472;2023-04-25T01:56:12;15.80;;;8.10;;
34035;SDS011;63481;52.588;22.472;2023-04-25T01:56:49;14.90;;;8.00;;
34035;SDS011;63481;52.588;22.472;2023-04-25T01:57:22;17.80;;;8.60;;
34035;SDS011;63481;52.588;22.472;2023-04-25T01:57:54;18.20;;;8.40;;
34035;SDS011;63481;52.588;22.472;2023-04-25T01:58:34;14.20;;;8.80;;
34035;SDS011;63481;52.588;22.472;2023-04-25T01:59:18;14.20;;;8.50;;
34035;SDS011;63481;52.588;22.472;2023-04-25T02:00:44;13.20;;;8.30;;
34035;SDS011;63481;52.588;22.472;2023-04-25T02:01:17;15.90;;;8.50;;
34035;SDS011;63481;52.588;22.472;2023-04-25T02:01:53;12.60;;;8.20;;
34035;SDS011;63481;52.588;22.472;2023-04-25T02:02:28;12.80;;;8.60;;
34035;SDS011;63481;52.588;22.472;2023-04-25T02:03:00;15.80;;;8.50;;
34035;SDS011;63481;52.588;22.472;2023-04-25T02:03:36;16.50;;;8.90;;
34035;SDS011;63481;52.588;22.472;2023-04-25T02:04:11;13.70;;;8.20;;
34035;SDS011;63481;52.588;22.472;2023-04-25T02:04:44;17.30;;;8.50;;
34035;SDS011;63481;52.588;22.472;2023-04-25T02:05:17;13.10;;;7.80;;
34035;SDS011;63481;52.588;22.472;2023-04-25T02:05:50;16.70;;;9.30;;
34035;SDS011;63481;52.588;22.472;2023-04-25T02:06:22;13.50;;;8.70;;
34035;SDS011;63481;52.588;22.472;2023-04-25T02:06:54;12.80;;;8.40;;
34035;SDS011;63481;52.588;22.472;2023-04-25T02:07:27;15.80;;;9.00;;
34035;SDS011;63481;52.588;22.472;2023-04-25T02:07:59;13.20;;;8.50;;
34035;SDS011;63481;52.588;22.472;2023-04-25T02:08:31;15.70;;;9.00;;
34035;SDS011;63481;52.588;22.472;2023-04-25T02:09:04;14.10;;;8.50;;
34035;SDS011;63481;52.588;22.472;2023-04-25T02:09:37;12.50;;;8.10;;
34035;SDS011;63481;52.588;22.472;2023-04-25T02:10:11;14.20;;;7.20;;
34035;SDS011;63481;52.588;22.472;2023-04-25T02:10:58;17.20;;;8.70;;
34035;SDS011;63481;52.588;22.472;2023-04-25T02:11:36;12.90;;;8.20;;
34035;SDS011;63481;52.588;22.472;2023-04-25T02:12:32;16.70;;;8.40;;
34035;SDS011;63481;52.588;22.472;2023-04-25T02:13:25;16.10;;;8.40;;
34035;SDS011;63481;52.588;22.472;2023-04-25T02:14:00;13.20;;;8.70;;
34035;SDS011;63481;52.588;22.472;2023-04-25T02:14:58;13.30;;;8.80;;
34035;SDS011;63481;52.588;22.472;2023-04-25T02:15:44;13.20;;;8.70;;
34035;SDS011;63481;52.588;22.472;2023-04-25T02:16:21;13.20;;;8.10;;
34035;SDS011;63481;52.588;22.472;2023-04-25T02:16:53;15.80;;;9.10;;
34035;SDS011;63481;52.588;22.472;2023-04-25T02:17:25;16.80;;;8.70;;
34035;SDS011;63481;52.588;22.472;2023-04-25T02:17:58;19.10;;;8.70;;
34035;SDS011;63481;52.588;22.472;2023-04-25T02:18:31;14.30;;;8.90;;
34035;SDS011;63481;52.588;22.472;2023-04-25T02:19:05;14.30;;;8.40;;
34035;SDS011;63481;52.588;22.472;2023-04-25T02:19:38;15.90;;;9.00;;
34035;SDS011;63481;52.588;22.472;2023-04-25T02:20:10;14.50;;;9.00;;
34035;SDS011;63481;52.588;22.472;2023-04-25T02:20:45;14.80;;;9.30;;
34035;SDS011;63481;52.588;22.472;2023-04-25T02:21:17;12.50;;;8.50;;
34035;SDS011;63481;52.588;22.472;2023-04-25T02:21:49;13.40;;;8.60;;
34035;SDS011;63481;52.588;22.472;2023-04-25T02:22:21;13.20;;;9.00;;
34035;SDS011;63481;52.588;22.472;2023-04-25T02:22:54;13.10;;;8.60;;
34035;SDS011;63481;52.588;22.472;2023-04-25T02:23:26;15.70;;;8.50;;
34035;SDS011;63481;52.588;22.472;2023-04-25T02:24:00;16.20;;;9.90;;
34035;SDS011;63481;52.588;22.472;2023-04-25T02:24:33;18.10;;;9.40;;
34035;SDS011;63481;52.588;22.472;2023-04-25T02:25:06;15.20;;;9.50;;
34035;SDS011;63481;52.588;22.472;2023-04-25T02:25:39;16.10;;;9.90;;
34035;SDS011;63481;52.588;22.472;2023-04-25T02:26:11;13.30;;;9.20;;
34035;SDS011;63481;52.588;22.472;2023-04-25T02:26:45;17.90;;;10.10;;
34035;SDS011;63481;52.588;22.472;2023-04-25T02:27:18;18.20;;;10.10;;
34035;SDS011;63481;52.588;22.472;2023-04-25T02:27:51;18.20;;;10.10;;
34035;SDS011;63481;52.588;22.472;2023-04-25T02:28:23;17.50;;;10.10;;
34035;SDS011;63481;52.588;22.472;2023-04-25T02:28:57;15.60;;;9.80;;
34035;SDS011;63481;52.588;22.472;2023-04-25T02:29:29;19.00;;;10.10;;
34035;SDS011;63481;52.588;22.472;2023-04-25T02:30:03;18.50;;;10.30;;
34035;SDS011;63481;52.588;22.472;2023-04-25T02:30:38;15.90;;;10.00;;
34035;SDS011;63481;52.588;22.472;2023-04-25T02:31:11;14.00;;;9.70;;
34035;SDS011;63481;52.588;22.472;2023-04-25T02:31:43;14.50;;;10.00;;
34035;SDS011;63481;52.588;22.472;2023-04-25T02:32:15;14.90;;;9.70;;
34035;SDS011;63481;52.588;22.472;2023-04-25T02:32:47;15.80;;;10.20;;
34035;SDS011;63481;52.588;22.472;2023-04-25T02:33:22;17.00;;;11.40;;
34035;SDS011;63481;52.588;22.472;2023-04-25T02:33:55;21.90;;;12.60;;
34035;SDS011;63481;52.588;22.472;2023-04-25T02:34:27;21.30;;;12.60;;
34035;SDS011;63481;52.588;22.472;2023-04-25T02:34:59;17.00;;;10.90;;
34035;SDS011;63481;52.588;22.472;2023-04-25T02:35:35;19.90;;;12.20;;
34035;SDS011;63481;52.588;22.472;2023-04-25T02:36:07;23.70;;;12.30;;
34035;SDS011;63481;52.588;22.472;2023-04-25T02:36:42;19.70;;;11.40;;
34035;SDS011;63481;52.588;22.472;2023-04-25T02:37:15;19.20;;;11.10;;
34035;SDS011;63481;52.588;22.472;2023-04-25T02:37:48;19.10;;;10.70;;
34035;SDS011;63481;52.588;22.472;2023-04-25T02:38:20;18.50;;;10.00;;
34035;SDS011;63481;52.588;22.472;2023-04-25T02:38:52;18.40;;;11.00;;
34035;SDS011;63481;52.588;22.472;2023-04-25T02:39:26;21.90;;;13.00;;
34035;SDS011;63481;52.588;22.472;2023-04-25T02:39:59;22.90;;;12.00;;
34035;SDS011;63481;52.588;22.472;2023-04-25T02:40:31;21.60;;;12.90;;
34035;SDS011;63481;52.588;22.472;2023-04-25T02:41:03;23.60;;;12.60;;
34035;SDS011;63481;52.588;22.472;2023-04-25T02:41:36;19.40;;;11.80;;
34035;SDS011;63481;52.588;22.472;2023-04-25T02:42:08;20.80;;;11.30;;
34035;SDS011;63481;52.588;22.472;2023-04-25T02:42:40;20.80;;;12.20;;
34035;SDS011;63481;52.588;22.472;2023-04-25T02:43:15;18.50;;;10.80;;
34035;SDS011;63481;52.588;22.472;2023-04-25T02:43:47;19.60;;;12.00;;
34035;SDS011;63481;52.588;22.472;2023-04-25T02:44:20;18.00;;;12.10;;
34035;SDS011;63481;52.588;22.472;2023-04-25T02:44:52;22.80;;;10.70;;
34035;SDS011;63481;52.588;22.472;2023-04-25T02:45:28;17.30;;;9.70;;
34035;SDS011;63481;52.588;22.472;2023-04-25T02:46:00;17.10;;;10.60;;
34035;SDS011;63481;52.588;22.472;2023-04-25T02:46:33;17.70;;;10.30;;
34035;SDS011;63481;52.588;22.472;2023-04-25T02:47:05;16.80;;;8.70;;
34035;SDS011;63481;52.588;22.472;2023-04-25T02:47:37;13.10;;;8.20;;
34035;SDS011;63481;52.588;22.472;2023-04-25T02:48:10;14.10;;;9.30;;
34035;SDS011;63481;52.588;22.472;2023-04-25T02:48:42;15.00;;;9.60;;
34035;SDS011;63481;52.588;22.472;2023-04-25T02:49:14;19.30;;;9.80;;
34035;SDS011;63481;52.588;22.472;2023-04-25T02:49:46;16.50;;;9.10;;
34035;SDS011;63481;52.588;22.472;2023-04-25T02:50:19;15.00;;;9.60;;
34035;SDS011;63481;52.588;22.472;2023-04-25T02:50:51;15.40;;;9.70;;
34035;SDS011;63481;52.588;22.472;2023-04-25T02:51:23;13.80;;;8.70;;
34035;SDS011;63481;52.588;22.472;2023-04-25T02:51:56;14.90;;;9.10;;
34035;SDS011;63481;52.588;22.472;2023-04-25T02:52:29;15.90;;;8.60;;
34035;SDS011;63481;52.588;22.472;2023-04-25T02:53:07;14.80;;;9.20;;
34035;SDS011;63481;52.588;22.472;2023-04-25T02:53:45;14.10;;;9.40;;
34035;SDS011;63481;52.588;22.472;2023-04-25T02:54:17;17.90;;;8.50;;
34035;SDS011;63481;52.588;22.472;2023-04-25T02:54:51;12.80;;;8.70;;
34035;SDS011;63481;52.588;22.472;2023-04-25T02:55:23;15.30;;;8.40;;
34035;SDS011;63481;52.588;22.472;2023-04-25T02:55:56;14.20;;;8.50;;
34035;SDS011;63481;52.588;22.472;2023-04-25T02:56:32;13.50;;;8.20;;
34035;SDS011;63481;52.588;22.472;2023-04-25T02:57:05;14.40;;;8.20;;
34035;SDS011;63481;52.588;22.472;2023-04-25T02:57:41;12.20;;;7.90;;
34035;SDS011;63481;52.588;22.472;2023-04-25T02:58:14;13.20;;;8.50;;
34035;SDS011;63481;52.588;22.472;2023-04-25T02:58:52;13.10;;;8.10;;
34035;SDS011;63481;52.588;22.472;2023-04-25T02:59:25;14.10;;;7.30;;
34035;SDS011;63481;52.588;22.472;2023-04-25T02:59:57;13.50;;;8.20;;
34035;SDS011;63481;52.588;22.472;2023-04-25T03:00:30;12.30;;;8.00;;
34035;SDS011;63481;52.588;22.472;2023-04-25T03:01:02;13.90;;;8.30;;
34035;SDS011;63481;52.588;22.472;2023-04-25T03:01:35;15.70;;;9.00;;
34035;SDS011;63481;52.588;22.472;2023-04-25T03:02:07;14.60;;;8.50;;
34035;SDS011;63481;52.588;22.472;2023-04-25T03:02:39;11.80;;;8.20;;
34035;SDS011;63481;52.588;22.472;2023-04-25T03:03:12;15.90;;;8.70;;
34035;SDS011;63481;52.588;22.472;2023-04-25T03:03:44;14.90;;;9.40;;
34035;SDS011;63481;52.588;22.472;2023-04-25T03:04:16;13.80;;;8.70;;
34035;SDS011;63481;52.588;22.472;2023-04-25T03:04:50;16.70;;;9.00;;
34035;SDS011;63481;52.588;22.472;2023-04-25T03:05:23;12.80;;;8.90;;
34035;SDS011;63481;52.588;22.472;2023-04-25T03:05:55;14.50;;;9.10;;
34035;SDS011;63481;52.588;22.472;2023-04-25T03:06:31;14.60;;;9.10;;
34035;SDS011;63481;52.588;22.472;2023-04-25T03:07:03;17.00;;;10.50;;
34035;SDS011;63481;52.588;22.472;2023-04-25T03:07:39;19.00;;;10.70;;
34035;SDS011;63481;52.588;22.472;2023-04-25T03:08:12;16.80;;;9.60;;
34035;SDS011;63481;52.588;22.472;2023-04-25T03:08:44;15.30;;;9.30;;
34035;SDS011;63481;52.588;22.472;2023-04-25T03:09:16;15.60;;;10.10;;
34035;SDS011;63481;52.588;22.472;2023-04-25T03:09:48;15.50;;;10.40;;
34035;SDS011;63481;52.588;22.472;2023-04-25T03:10:21;19.00;;;10.40;;
34035;SDS011;63481;52.588;22.472;2023-04-25T03:10:53;17.80;;;10.90;;
34035;SDS011;63481;52.588;22.472;2023-04-25T03:11:27;14.60;;;10.70;;
34035;SDS011;63481;52.588;22.472;2023-04-25T03:11:59;14.00;;;9.80;;
34035;SDS011;63481;52.588;22.472;2023-04-25T03:12:32;20.00;;;10.20;;
34035;SDS011;63481;52.588;22.472;2023-04-25T03:13:04;12.30;;;9.10;;
34035;SDS011;63481;52.588;22.472;2023-04-25T03:13:37;16.20;;;10.10;;
34035;SDS011;63481;52.588;22.472;2023-04-25T03:14:09;13.20;;;9.50;;
34035;SDS011;63481;52.588;22.472;2023-04-25T03:14:41;17.10;;;10.70;;
34035;SDS011;63481;52.588;22.472;2023-04-25T03:15:14;15.90;;;10.30;;
34035;SDS011;63481;52.588;22.472;2023-04-25T03:15:48;17.50;;;10.00;;
34035;SDS011;63481;52.588;22.472;2023-04-25T03:16:21;17.10;;;9.70;;
34035;SDS011;63481;52.588;22.472;2023-04-25T03:16:53;20.30;;;9.00;;